Allendale, Michigan
Current Conditions -  °F | °C
As of 11:53 PM on Sunday 21 Dec 2014 (Local Time) from KBIV Reporting Station
Clear Clear  
Wind Chill: 24°   Ceiling: Unl
Heat Index: 32°   Visibility: 7mi
Dew Point: 25°   Wind: 10mph
Humidity: 75%   Direction: 130°SE
Pressure: 30.09"   Gusts: NA
Location:  42.97°N, 85.95°W
Report Text: KBIV 220453Z AUTO 13009KT 7SM CLR 00/M04 A3009 RMK AO2 SLP197 T00001039 400280000
Loading
Personal Weather Stations






























Interactive Weather Map New forecast layout! Learn more

10-Day Weather Forecast

Advertisements
Track Severe Weather on mobile